Time;durP1;ratioP1;P1;durP2;ratioP2;P2;SDS_P1;SDS_P2;PMS_P1;PMS_P2;Temp;Humidity;BMP_temperature;BMP_pressure;BME280_temperature;BME280_humidity;BME280_pressure;Samples;Min_cycle;Max_cycle;Signal;HPM_P1;HPM_P2
2023/11/07 00:00:08;;;;;;;10.60;3.50;;;8.20;99.90;;;;;;5050986;28;20416;-72
2023/11/07 00:02:34;;;;;;;14.60;3.20;;;8.20;99.90;;;;;;5051060;28;20429;-72
2023/11/07 00:04:59;;;;;;;10.63;3.45;;;8.20;99.90;;;;;;5049667;28;20550;-73
2023/11/07 00:07:25;;;;;;;17.13;5.30;;;8.30;99.90;;;;;;5050991;28;20522;-72
2023/11/07 00:09:52;;;;;;;10.40;2.90;;;8.30;99.90;;;;;;5051204;28;20451;-73
2023/11/07 00:12:18;;;;;;;9.85;3.22;;;8.40;98.20;;;;;;5050943;28;20390;-72
2023/11/07 00:14:44;;;;;;;12.25;2.90;;;8.40;97.70;;;;;;5050765;28;20381;-71
2023/11/07 00:17:10;;;;;;;5.95;2.80;;;8.20;99.00;;;;;;5066178;28;20377;-72
2023/11/07 00:19:36;;;;;;;9.90;2.90;;;8.20;99.70;;;;;;5050857;28;20431;-74
2023/11/07 00:22:02;;;;;;;9.50;3.15;;;8.30;98.90;;;;;;5050781;28;20385;-72
2023/11/07 00:24:27;;;;;;;11.57;3.55;;;8.30;99.10;;;;;;5050958;28;20397;-72
2023/11/07 00:26:53;;;;;;;5.20;2.70;;;8.20;99.90;;;;;;5050815;28;20389;-72
2023/11/07 00:29:21;;;;;;;8.70;3.00;;;8.20;99.90;;;;;;5050813;28;20413;-73
2023/11/07 00:31:47;;;;;;;10.07;3.00;;;8.20;99.90;;;;;;5049602;28;20417;-71
2023/11/07 00:34:16;;;;;;;9.25;2.80;;;8.20;99.50;;;;;;5050662;28;20386;-72
2023/11/07 00:36:46;;;;;;;7.65;2.90;;;8.20;99.40;;;;;;5050559;28;20381;-71
2023/11/07 00:39:12;;;;;;;11.82;2.90;;;8.20;98.90;;;;;;5051017;28;20388;-71
2023/11/07 00:41:38;;;;;;;10.40;2.97;;;8.20;98.20;;;;;;5051332;28;20386;-73
2023/11/07 00:44:05;;;;;;;8.48;2.80;;;8.10;98.10;;;;;;5050816;28;20729;-72
2023/11/07 00:46:30;;;;;;;7.05;2.80;;;8.10;99.40;;;;;;5050803;28;20488;-73
2023/11/07 00:48:56;;;;;;;12.43;3.40;;;8.10;99.70;;;;;;5050811;28;20872;-73
2023/11/07 00:51:22;;;;;;;9.05;2.88;;;8.00;99.60;;;;;;5053151;28;20381;-72
2023/11/07 00:53:50;;;;;;;6.80;2.95;;;8.10;99.70;;;;;;5054934;28;20470;-71
2023/11/07 00:56:16;;;;;;;9.02;2.80;;;8.10;99.90;;;;;;5055243;28;20385;-73
2023/11/07 00:58:41;;;;;;;7.07;3.10;;;8.10;99.90;;;;;;5055200;28;20887;-72
2023/11/07 01:01:07;;;;;;;5.83;2.80;;;8.20;99.90;;;;;;5055451;28;20542;-74
2023/11/07 01:03:32;;;;;;;6.67;2.53;;;8.20;99.90;;;;;;5054934;28;20393;-73
2023/11/07 01:05:58;;;;;;;11.47;3.10;;;8.30;99.40;;;;;;5054471;28;20809;-73
2023/11/07 01:08:23;;;;;;;8.80;3.07;;;8.40;99.90;;;;;;5053923;28;20444;-72
2023/11/07 01:10:49;;;;;;;7.20;2.60;;;8.50;99.90;;;;;;5054833;28;20463;-72
2023/11/07 01:13:15;;;;;;;9.70;2.90;;;8.60;98.50;;;;;;5054810;28;20456;-72
2023/11/07 01:15:41;;;;;;;3.88;2.30;;;8.70;97.30;;;;;;5054310;28;20393;-71
2023/11/07 01:18:07;;;;;;;11.23;2.40;;;8.80;92.80;;;;;;5054488;28;20611;-72
2023/11/07 01:20:34;;;;;;;5.55;2.50;;;8.80;92.00;;;;;;5054520;28;20386;-74
2023/11/07 01:23:00;;;;;;;7.20;2.30;;;9.00;89.70;;;;;;5054859;28;20911;-74
2023/11/07 01:25:27;;;;;;;4.13;2.00;;;9.00;89.10;;;;;;5054297;28;20389;-72
2023/11/07 01:27:53;;;;;;;7.47;2.13;;;9.10;86.20;;;;;;5054259;28;20400;-72
2023/11/07 01:30:20;;;;;;;5.45;2.25;;;9.20;82.40;;;;;;5054425;28;20405;-72
2023/11/07 01:32:46;;;;;;;5.30;2.33;;;9.10;83.50;;;;;;5054821;28;20523;-73
2023/11/07 01:35:12;;;;;;;5.40;2.58;;;9.10;84.00;;;;;;5055105;28;20821;-73
2023/11/07 01:37:38;;;;;;;9.07;2.50;;;9.20;83.50;;;;;;5060871;28;20408;-73
2023/11/07 01:40:04;;;;;;;7.78;2.60;;;9.20;82.70;;;;;;5065579;28;20386;-73
2023/11/07 01:42:30;;;;;;;10.32;2.40;;;9.20;81.80;;;;;;5065055;28;20905;-72
2023/11/07 01:44:56;;;;;;;9.20;2.40;;;9.20;80.40;;;;;;5063012;28;20401;-73
2023/11/07 01:47:25;;;;;;;6.23;2.20;;;9.20;79.50;;;;;;5054366;28;20420;-71
2023/11/07 01:49:51;;;;;;;5.13;2.00;;;9.20;77.80;;;;;;5054247;28;20405;-72
2023/11/07 01:52:18;;;;;;;6.30;2.47;;;9.10;80.10;;;;;;5054651;28;20428;-71
2023/11/07 01:54:46;;;;;;;5.30;2.40;;;9.10;80.80;;;;;;5053767;28;20391;-72
2023/11/07 01:57:14;;;;;;;5.88;2.00;;;9.10;79.20;;;;;;5054185;28;20793;-72
2023/11/07 01:59:41;;;;;;;6.05;2.10;;;8.90;81.20;;;;;;5059775;28;20392;-72
2023/11/07 02:02:13;;;;;;;6.10;2.17;;;8.90;82.40;;;;;;5064712;28;20929;-72
2023/11/07 02:04:39;;;;;;;6.47;2.30;;;8.90;82.00;;;;;;5066817;28;20454;-72
2023/11/07 02:07:04;;;;;;;6.28;2.33;;;8.90;81.70;;;;;;5067662;28;20386;-72
2023/11/07 02:09:31;;;;;;;5.15;2.30;;;8.80;82.20;;;;;;5061664;28;20480;-73
2023/11/07 02:11:56;;;;;;;5.05;2.20;;;8.90;80.40;;;;;;5054310;28;20385;-72
2023/11/07 02:14:29;;;;;;;5.80;2.00;;;8.80;81.60;;;;;;5053219;28;20388;-72
2023/11/07 02:16:54;;;;;;;5.55;2.00;;;8.70;84.00;;;;;;5052738;28;20740;-72
2023/11/07 02:19:20;;;;;;;3.63;2.13;;;8.60;83.40;;;;;;5051593;28;20390;-72
2023/11/07 02:21:46;;;;;;;9.82;2.20;;;8.50;85.10;;;;;;5053203;28;20416;-72
2023/11/07 02:24:12;;;;;;;3.70;1.90;;;8.40;88.00;;;;;;5052747;28;20441;-72
2023/11/07 02:26:38;;;;;;;6.57;2.00;;;8.30;89.30;;;;;;5052743;28;20909;-71
2023/11/07 02:29:05;;;;;;;9.05;2.20;;;8.30;89.30;;;;;;5052687;28;20389;-72
2023/11/07 02:31:31;;;;;;;7.15;2.38;;;8.30;90.40;;;;;;5052942;28;20384;-72
2023/11/07 02:33:57;;;;;;;8.98;2.20;;;8.30;91.20;;;;;;5052684;28;20385;-72
2023/11/07 02:36:22;;;;;;;5.35;2.10;;;8.20;92.40;;;;;;5052726;28;20412;-72
2023/11/07 02:38:48;;;;;;;12.60;2.47;;;8.30;91.80;;;;;;5052551;28;20417;-74
2023/11/07 02:41:13;;;;;;;6.88;2.20;;;8.30;91.30;;;;;;5052622;28;20416;-73
2023/11/07 02:43:39;;;;;;;8.23;2.25;;;8.30;90.80;;;;;;5052553;28;20389;-72
2023/11/07 02:46:05;;;;;;;4.80;1.95;;;8.40;91.40;;;;;;5052095;28;20394;-72
2023/11/07 02:48:31;;;;;;;6.27;2.40;;;8.30;92.80;;;;;;5052443;28;20453;-72
2023/11/07 02:50:56;;;;;;;4.47;2.13;;;8.30;93.70;;;;;;5052072;28;20393;-72
2023/11/07 02:53:22;;;;;;;5.57;2.40;;;8.30;94.10;;;;;;5052316;28;20408;-72
2023/11/07 02:55:48;;;;;;;5.37;2.40;;;8.30;93.10;;;;;;5052222;28;20394;-71
2023/11/07 02:58:15;;;;;;;5.83;2.50;;;8.40;91.10;;;;;;5052215;28;20386;-71
2023/11/07 03:00:40;;;;;;;4.75;2.30;;;8.30;90.40;;;;;;5052126;28;20431;-71
2023/11/07 03:03:06;;;;;;;7.85;2.20;;;8.20;91.00;;;;;;5052326;28;20385;-70
2023/11/07 03:05:32;;;;;;;5.17;2.20;;;8.30;91.60;;;;;;5052229;28;20468;-71
2023/11/07 03:07:58;;;;;;;5.27;2.20;;;8.20;92.20;;;;;;5052091;28;20474;-71
2023/11/07 03:10:23;;;;;;;6.50;2.40;;;8.30;93.40;;;;;;5051832;28;20437;-72
2023/11/07 03:12:49;;;;;;;5.25;2.55;;;8.30;92.60;;;;;;5051295;28;20767;-71
2023/11/07 03:15:15;;;;;;;7.22;2.63;;;8.30;92.00;;;;;;5050640;28;20464;-71
2023/11/07 03:17:41;;;;;;;3.53;2.40;;;8.30;91.80;;;;;;5050854;28;20388;-72
2023/11/07 03:20:08;;;;;;;6.82;2.38;;;8.30;91.80;;;;;;5053301;28;20436;-72
2023/11/07 03:22:35;;;;;;;4.20;1.90;;;8.30;92.50;;;;;;5053109;28;20388;-72
2023/11/07 03:25:01;;;;;;;8.20;2.30;;;8.40;91.70;;;;;;5051951;28;20382;-72
2023/11/07 03:27:26;;;;;;;3.83;2.10;;;8.40;91.60;;;;;;5051408;28;20441;-71
2023/11/07 03:29:52;;;;;;;5.80;2.20;;;8.50;90.80;;;;;;5051542;28;20444;-71
2023/11/07 03:32:17;;;;;;;3.10;1.80;;;8.60;90.30;;;;;;5051699;28;20876;-72
2023/11/07 03:34:43;;;;;;;9.03;2.50;;;8.60;89.30;;;;;;5051535;28;20385;-71
2023/11/07 03:37:09;;;;;;;4.53;2.13;;;8.60;88.70;;;;;;5050929;28;20451;-71
2023/11/07 03:39:34;;;;;;;6.40;2.20;;;8.70;88.60;;;;;;5051592;28;20385;-71
2023/11/07 03:42:00;;;;;;;5.93;1.90;;;8.70;87.40;;;;;;5052111;28;20390;-72
2023/11/07 03:44:27;;;;;;;6.47;2.30;;;8.80;86.70;;;;;;5051596;28;20431;-71
2023/11/07 03:46:52;;;;;;;6.80;2.40;;;8.90;86.30;;;;;;5081277;22;20416;-71
2023/11/07 03:49:18;;;;;;;5.10;2.10;;;9.00;84.40;;;;;;5070954;28;20407;-71
2023/11/07 03:51:45;;;;;;;6.82;2.08;;;9.10;82.30;;;;;;5071053;28;20505;-70
2023/11/07 03:54:11;;;;;;;6.13;2.50;;;9.10;81.60;;;;;;5070936;28;20387;-72
2023/11/07 03:56:36;;;;;;;6.70;2.10;;;9.10;80.30;;;;;;5070824;28;20796;-72
2023/11/07 03:59:03;;;;;;;8.27;2.50;;;9.20;80.10;;;;;;5070838;28;20375;-72
2023/11/07 04:01:36;;;;;;;5.88;2.10;;;9.20;80.50;;;;;;5071194;28;20380;-71
2023/11/07 04:04:02;;;;;;;4.50;2.00;;;9.20;80.40;;;;;;5071046;28;20392;-73
2023/11/07 04:06:28;;;;;;;7.97;2.40;;;9.20;78.60;;;;;;5070601;28;20395;-73
2023/11/07 04:08:54;;;;;;;7.67;2.00;;;9.20;78.60;;;;;;5069593;28;20462;-71
2023/11/07 04:11:19;;;;;;;6.53;2.20;;;9.20;77.10;;;;;;5070668;28;20399;-72
2023/11/07 04:13:45;;;;;;;4.22;2.40;;;9.10;78.80;;;;;;5070625;28;20383;-70
2023/11/07 04:16:10;;;;;;;6.15;2.10;;;9.20;78.30;;;;;;5069243;28;20375;-71
2023/11/07 04:18:36;;;;;;;5.30;2.03;;;9.20;78.30;;;;;;5070711;28;20395;-70
2023/11/07 04:21:04;;;;;;;3.60;2.30;;;9.20;78.60;;;;;;5071173;28;20379;-70
2023/11/07 04:23:29;;;;;;;3.97;2.13;;;9.20;79.10;;;;;;5070919;28;20618;-69
2023/11/07 04:25:55;;;;;;;6.30;2.50;;;9.30;79.10;;;;;;5074246;28;20968;-70
2023/11/07 04:28:21;;;;;;;4.28;2.60;;;9.30;78.30;;;;;;5077243;28;20387;-69
2023/11/07 04:30:46;;;;;;;8.82;2.40;;;9.30;77.70;;;;;;5093243;28;20407;-72
2023/11/07 04:33:12;;;;;;;3.85;2.35;;;9.30;76.40;;;;;;5098196;28;20411;-72
2023/11/07 04:35:39;;;;;;;4.25;2.00;;;9.20;76.00;;;;;;5085383;28;20734;-73
2023/11/07 04:38:05;;;;;;;3.95;2.15;;;9.10;76.90;;;;;;5074791;28;20893;-70
2023/11/07 04:40:30;;;;;;;6.17;2.03;;;9.00;78.20;;;;;;5074477;28;20432;-72
2023/11/07 04:42:56;;;;;;;5.00;2.13;;;8.90;79.80;;;;;;5073608;28;20417;-71
2023/11/07 04:45:21;;;;;;;3.77;2.07;;;8.90;79.20;;;;;;5075387;28;20401;-71
2023/11/07 04:47:48;;;;;;;6.13;1.83;;;9.00;79.40;;;;;;5074784;28;20455;-73
2023/11/07 04:50:16;;;;;;;6.00;2.00;;;9.10;79.50;;;;;;5074649;28;20415;-70
2023/11/07 04:52:42;;;;;;;7.30;2.22;;;9.30;76.20;;;;;;5074419;28;20407;-71
2023/11/07 04:55:07;;;;;;;4.75;1.85;;;9.40;74.60;;;;;;5074353;28;20379;-71
2023/11/07 04:57:33;;;;;;;3.88;1.73;;;9.50;72.30;;;;;;5074286;28;20937;-71
2023/11/07 04:59:59;;;;;;;3.70;2.10;;;9.60;70.40;;;;;;5075084;28;20853;-71
2023/11/07 05:02:25;;;;;;;7.20;2.13;;;9.60;69.40;;;;;;5074678;28;20452;-71
2023/11/07 05:04:51;;;;;;;3.87;1.50;;;9.70;68.30;;;;;;5074303;28;20401;-71
2023/11/07 05:07:17;;;;;;;6.00;2.20;;;9.70;68.70;;;;;;5074760;28;20463;-72
2023/11/07 05:09:43;;;;;;;4.90;2.00;;;9.70;68.20;;;;;;5074321;28;20411;-72
2023/11/07 05:12:08;;;;;;;9.40;2.43;;;9.70;66.80;;;;;;5072562;28;20388;-71
2023/11/07 05:14:34;;;;;;;6.93;2.20;;;9.80;67.10;;;;;;5073767;28;20433;-71
2023/11/07 05:16:59;;;;;;;5.10;1.90;;;9.80;66.20;;;;;;5073862;28;20456;-70
2023/11/07 05:19:25;;;;;;;6.75;2.00;;;9.90;65.00;;;;;;5073697;28;20466;-71
2023/11/07 05:21:51;;;;;;;4.85;1.98;;;9.90;63.30;;;;;;5072591;28;20403;-70
2023/11/07 05:24:17;;;;;;;4.93;1.90;;;10.00;62.80;;;;;;5072468;28;20436;-72
2023/11/07 05:26:46;;;;;;;6.80;2.20;;;9.90;63.80;;;;;;5073271;28;20697;-72
2023/11/07 05:29:17;;;;;;;4.70;2.03;;;9.90;63.80;;;;;;5073649;28;20470;-72
2023/11/07 05:31:43;;;;;;;9.43;2.10;;;9.90;64.10;;;;;;5073840;28;20380;-72
2023/11/07 05:34:08;;;;;;;6.20;1.90;;;9.90;64.20;;;;;;5073474;28;20437;-70
2023/11/07 05:36:34;;;;;;;8.30;1.93;;;9.90;64.00;;;;;;5072351;28;20737;-70
2023/11/07 05:39:00;;;;;;;5.97;2.17;;;9.80;63.80;;;;;;5073596;28;20460;-70
2023/11/07 05:41:25;;;;;;;4.47;2.00;;;9.80;64.90;;;;;;5073200;28;20884;-70
2023/11/07 05:43:54;;;;;;;4.60;2.30;;;9.70;66.10;;;;;;5073250;28;20392;-71
2023/11/07 05:46:21;;;;;;;7.55;2.20;;;9.70;66.30;;;;;;5072551;28;20402;-71
2023/11/07 05:48:49;;;;;;;5.07;2.50;;;9.70;66.10;;;;;;5073272;28;20422;-71
2023/11/07 05:51:15;;;;;;;9.10;2.33;;;9.70;66.50;;;;;;5073249;28;20419;-71
2023/11/07 05:53:41;;;;;;;5.07;2.10;;;9.70;65.80;;;;;;5073342;28;20445;-71
2023/11/07 05:56:06;;;;;;;6.57;2.30;;;9.60;66.00;;;;;;5071589;28;20520;-71
2023/11/07 05:58:32;;;;;;;5.10;2.30;;;9.50;67.60;;;;;;5072990;28;20390;-70
2023/11/07 06:00:58;;;;;;;4.60;2.20;;;9.50;68.10;;;;;;5073441;28;20391;-71
2023/11/07 06:03:23;;;;;;;3.05;2.10;;;9.50;68.10;;;;;;5073023;28;20383;-71
2023/11/07 06:05:49;;;;;;;4.90;2.27;;;9.40;69.10;;;;;;5072854;28;20395;-71
2023/11/07 06:08:15;;;;;;;5.43;2.50;;;9.30;70.40;;;;;;5072926;28;20379;-70
2023/11/07 06:10:40;;;;;;;6.55;2.90;;;9.30;71.10;;;;;;5073982;28;20407;-72
2023/11/07 06:13:06;;;;;;;7.03;2.80;;;9.30;71.50;;;;;;5074423;28;20474;-72
2023/11/07 06:15:32;;;;;;;5.17;2.53;;;9.30;71.40;;;;;;5073522;28;20380;-70
2023/11/07 06:17:58;;;;;;;3.40;2.40;;;9.20;72.00;;;;;;5073697;28;20407;-72
2023/11/07 06:20:24;;;;;;;7.85;2.20;;;9.10;72.50;;;;;;5072833;28;20388;-70
2023/11/07 06:22:50;;;;;;;4.80;2.40;;;9.10;73.20;;;;;;5074856;28;20478;-71
2023/11/07 06:25:16;;;;;;;4.95;2.38;;;9.00;74.40;;;;;;5072378;28;20387;-72
2023/11/07 06:27:42;;;;;;;7.88;2.40;;;8.90;75.50;;;;;;5072150;28;20423;-71
2023/11/07 06:30:09;;;;;;;6.05;2.70;;;8.90;76.60;;;;;;5072928;28;20431;-71
2023/11/07 06:32:35;;;;;;;8.52;2.78;;;8.90;77.60;;;;;;5071437;28;20394;-70
2023/11/07 06:35:01;;;;;;;6.65;2.40;;;8.80;78.30;;;;;;5072538;28;20474;-70
2023/11/07 06:37:33;;;;;;;10.93;2.40;;;8.80;80.00;;;;;;5072157;28;20456;-70
2023/11/07 06:40:04;;;;;;;3.45;2.20;;;8.90;79.00;;;;;;5071953;28;20391;-72
2023/11/07 06:42:30;;;;;;;5.85;2.40;;;9.00;77.60;;;;;;5071906;28;20421;-71
2023/11/07 06:44:56;;;;;;;6.40;2.80;;;8.90;78.60;;;;;;5073676;28;20384;-73
2023/11/07 06:47:21;;;;;;;5.88;2.50;;;8.90;80.00;;;;;;5071511;28;20409;-69
2023/11/07 06:49:48;;;;;;;3.88;1.95;;;8.90;80.30;;;;;;5071974;28;20411;-70
2023/11/07 06:52:14;;;;;;;5.93;3.50;;;9.00;80.60;;;;;;5071814;28;20750;-70
2023/11/07 06:54:39;;;;;;;5.10;2.03;;;9.00;79.50;;;;;;5070720;28;20453;-70
2023/11/07 06:57:08;;;;;;;4.32;2.00;;;9.00;79.40;;;;;;5071674;28;20384;-70
2023/11/07 06:59:33;;;;;;;4.55;1.85;;;9.00;78.40;;;;;;5071746;28;20380;-72
2023/11/07 07:02:00;;;;;;;5.97;2.45;;;8.90;79.70;;;;;;5071732;28;20399;-72
2023/11/07 07:04:25;;;;;;;4.67;2.30;;;8.80;80.80;;;;;;5071518;28;20388;-71
2023/11/07 07:06:51;;;;;;;3.50;2.67;;;8.80;80.90;;;;;;5071471;28;20900;-69
2023/11/07 07:10:09;;;;;;;6.03;2.40;;;8.80;81.50;;;;;;5071241;28;20891;-72
2023/11/07 07:12:35;;;;;;;7.15;2.38;;;8.70;82.60;;;;;;5071204;28;20446;-72
2023/11/07 07:15:02;;;;;;;6.40;2.80;;;8.80;84.40;;;;;;5071704;28;20395;-71
2023/11/07 07:17:27;;;;;;;8.52;2.60;;;8.90;82.40;;;;;;5071421;28;20384;-71
2023/11/07 07:19:53;;;;;;;4.87;2.30;;;9.00;81.20;;;;;;5071485;28;20380;-70
2023/11/07 07:22:27;;;;;;;3.78;2.20;;;9.10;79.40;;;;;;5071039;28;20459;-71
2023/11/07 07:24:54;;;;;;;5.60;2.35;;;9.10;79.60;;;;;;5071168;28;20384;-71
2023/11/07 07:27:21;;;;;;;5.65;2.47;;;9.10;78.90;;;;;;5070861;28;20505;-71
2023/11/07 07:29:47;;;;;;;3.28;2.40;;;9.20;78.10;;;;;;5071537;28;20403;-71
2023/11/07 07:32:13;;;;;;;4.55;2.50;;;9.30;78.30;;;;;;5071492;28;20394;-72
2023/11/07 07:34:40;;;;;;;6.37;2.40;;;9.30;77.70;;;;;;5071089;28;20372;-71
2023/11/07 07:37:06;;;;;;;5.38;2.70;;;9.50;75.60;;;;;;5071080;28;20436;-71
2023/11/07 07:39:34;;;;;;;9.18;2.80;;;9.70;75.00;;;;;;5071293;28;20471;-71
2023/11/07 07:42:08;;;;;;;7.72;2.92;;;9.90;70.10;;;;;;5071093;28;20946;-72
2023/11/07 07:44:35;;;;;;;4.43;2.40;;;10.10;68.70;;;;;;5071203;28;20394;-72
2023/11/07 07:47:01;;;;;;;10.95;2.90;;;10.20;67.50;;;;;;5070978;28;20406;-71
2023/11/07 07:49:30;;;;;;;5.40;2.83;;;10.30;65.70;;;;;;5071154;28;20403;-70
2023/11/07 07:51:58;;;;;;;14.52;4.75;;;10.40;64.90;;;;;;5071307;28;20379;-70
2023/11/07 07:54:25;;;;;;;8.90;2.75;;;10.50;64.30;;;;;;5070948;28;20383;-70
2023/11/07 07:56:54;;;;;;;5.00;2.20;;;10.60;61.70;;;;;;5071871;28;20410;-71
2023/11/07 07:59:23;;;;;;;4.75;2.30;;;10.80;60.10;;;;;;5073093;28;20861;-71
2023/11/07 08:01:57;;;;;;;5.65;2.28;;;10.90;58.80;;;;;;5081585;28;20434;-72
2023/11/07 08:04:28;;;;;;;4.35;2.10;;;11.00;57.60;;;;;;5071716;28;20471;-71
2023/11/07 08:06:54;;;;;;;5.80;2.20;;;11.00;56.10;;;;;;5071484;28;20388;-71
2023/11/07 08:09:22;;;;;;;5.87;1.90;;;11.20;54.20;;;;;;5070855;28;20426;-70
2023/11/07 08:11:50;;;;;;;7.70;1.90;;;11.20;53.70;;;;;;5070823;28;20379;-72
2023/11/07 08:14:19;;;;;;;3.17;1.70;;;11.20;54.30;;;;;;5070285;28;20394;-72
2023/11/07 08:16:45;;;;;;;2.97;1.40;;;11.10;54.40;;;;;;5070444;28;20388;-70
2023/11/07 08:19:11;;;;;;;3.47;1.40;;;11.10;54.90;;;;;;5070512;28;20387;-71
2023/11/07 08:21:41;;;;;;;3.90;1.40;;;11.20;54.80;;;;;;5058124;28;20524;-71
2023/11/07 08:24:08;;;;;;;5.10;1.60;;;11.40;53.00;;;;;;5065697;28;20396;-71
2023/11/07 08:26:36;;;;;;;3.10;1.48;;;11.60;51.30;;;;;;5053443;28;20401;-71
2023/11/07 08:29:06;;;;;;;7.07;2.00;;;11.70;50.00;;;;;;5066866;28;20853;-70
2023/11/07 08:31:40;;;;;;;4.95;1.90;;;11.70;50.40;;;;;;5063331;28;20617;-70
2023/11/07 08:34:09;;;;;;;4.57;1.50;;;11.90;48.90;;;;;;5068658;28;20908;-72
2023/11/07 08:36:39;;;;;;;5.82;1.60;;;11.90;49.50;;;;;;5069072;28;20416;-71
2023/11/07 08:39:12;;;;;;;3.58;1.70;;;11.80;49.00;;;;;;5070194;28;20399;-71
2023/11/07 08:41:37;;;;;;;2.20;1.30;;;11.80;49.30;;;;;;5070164;28;20442;-71
2023/11/07 08:44:08;;;;;;;3.80;1.50;;;11.80;48.80;;;;;;5065834;28;20387;-71
2023/11/07 08:46:33;;;;;;;3.53;1.42;;;11.80;49.40;;;;;;5064603;28;20410;-71
2023/11/07 08:48:59;;;;;;;3.30;1.40;;;11.90;48.50;;;;;;5070161;28;20383;-71
2023/11/07 08:51:24;;;;;;;6.60;2.10;;;12.00;47.90;;;;;;5064012;28;20432;-71
2023/11/07 08:53:50;;;;;;;3.40;1.40;;;12.00;48.00;;;;;;5051326;28;20943;-71
2023/11/07 08:56:15;;;;;;;3.45;1.20;;;12.00;47.60;;;;;;5050012;28;20618;-71
2023/11/07 08:58:41;;;;;;;7.05;2.17;;;12.10;47.60;;;;;;5055082;28;20391;-70
2023/11/07 09:01:10;;;;;;;5.00;1.45;;;12.00;47.40;;;;;;5071525;28;20399;-71
2023/11/07 09:03:36;;;;;;;5.70;1.60;;;12.10;47.80;;;;;;5065608;28;20443;-71
2023/11/07 09:06:01;;;;;;;5.97;1.70;;;12.10;47.20;;;;;;5049719;28;20389;-71
2023/11/07 09:08:27;;;;;;;3.97;1.80;;;12.20;46.50;;;;;;5047761;28;20386;-70
2023/11/07 09:10:54;;;;;;;4.00;1.60;;;12.30;45.80;;;;;;5063253;28;20409;-70
2023/11/07 09:13:20;;;;;;;4.18;1.70;;;12.30;45.80;;;;;;5088732;28;20415;-70
2023/11/07 09:15:45;;;;;;;4.97;1.90;;;12.50;44.60;;;;;;5070177;28;20488;-70
2023/11/07 09:18:12;;;;;;;3.00;1.40;;;12.60;43.90;;;;;;5072158;28;20395;-71
2023/11/07 09:20:42;;;;;;;3.80;1.70;;;12.60;43.30;;;;;;5071445;28;20872;-71
2023/11/07 09:23:08;;;;;;;2.90;1.50;;;12.60;43.70;;;;;;5051276;28;20451;-70
2023/11/07 09:25:35;;;;;;;2.70;1.60;;;12.60;43.20;;;;;;5051244;28;20393;-71
2023/11/07 09:28:00;;;;;;;5.10;1.80;;;12.80;42.90;;;;;;5051322;28;20873;-71
2023/11/07 09:30:26;;;;;;;8.88;2.40;;;12.80;42.60;;;;;;5049425;28;20409;-71
2023/11/07 09:32:52;;;;;;;10.18;1.70;;;12.80;42.50;;;;;;5051322;28;20496;-70
2023/11/07 09:35:17;;;;;;;5.00;1.80;;;12.80;42.50;;;;;;5051252;28;20394;-70
2023/11/07 09:37:43;;;;;;;4.93;1.48;;;12.70;43.30;;;;;;5050973;28;20385;-71
2023/11/07 09:40:13;;;;;;;5.07;1.88;;;12.80;41.90;;;;;;5056764;28;20380;-70
2023/11/07 09:42:41;;;;;;;8.23;3.40;;;12.90;43.10;;;;;;5059790;28;20409;-70
2023/11/07 09:47:47;;;;;;;6.55;2.10;;;12.80;42.50;;;;;;5029462;28;20836;-69
2023/11/07 09:50:18;;;;;;;9.77;2.30;;;12.80;42.80;;;;;;5030840;28;20920;-73
2023/11/07 09:52:45;;;;;;;6.82;1.70;;;12.80;42.90;;;;;;5015580;28;20399;-73
2023/11/07 09:55:15;;;;;;;8.70;1.80;;;12.80;42.10;;;;;;5034173;28;20395;-73
2023/11/07 09:57:47;;;;;;;4.60;1.50;;;12.90;42.20;;;;;;5032442;28;20901;-73
2023/11/07 10:00:18;;;;;;;7.45;2.20;;;12.90;41.90;;;;;;5034240;28;20431;-75
2023/11/07 10:02:43;;;;;;;5.97;2.27;;;12.80;41.70;;;;;;5033760;28;20493;-73
2023/11/07 10:05:09;;;;;;;6.27;1.87;;;12.90;42.60;;;;;;5032554;28;20426;-73
2023/11/07 10:07:35;;;;;;;5.40;2.00;;;13.00;41.90;;;;;;5033099;28;20721;-76
2023/11/07 10:10:05;;;;;;;10.80;2.00;;;13.00;41.30;;;;;;5048757;28;20407;-74
2023/11/07 10:12:34;;;;;;;7.80;1.83;;;13.00;41.30;;;;;;5033213;28;20388;-72
2023/11/07 10:15:26;;;;;;;7.03;2.00;;;13.00;40.80;;;;;;5032135;28;20572;-72
2023/11/07 10:17:59;;;;;;;5.80;2.00;;;13.20;39.50;;;;;;5033421;28;20537;-74
2023/11/07 10:20:25;;;;;;;5.53;2.30;;;13.20;39.40;;;;;;5033022;28;20383;-73
2023/11/07 10:22:51;;;;;;;5.07;2.20;;;13.10;40.20;;;;;;5031621;28;20418;-73
2023/11/07 10:25:34;;;;;;;6.45;1.98;;;13.10;40.70;;;;;;5033447;28;20454;-73
2023/11/07 10:28:02;;;;;;;5.57;2.05;;;13.20;39.90;;;;;;5032240;28;20955;-74
2023/11/07 10:30:44;;;;;;;10.20;1.80;;;13.30;39.00;;;;;;5033368;28;20410;-72
2023/11/07 10:33:34;;;;;;;5.38;2.20;;;13.30;38.90;;;;;;5033928;28;20398;-74
2023/11/07 10:36:01;;;;;;;7.50;2.15;;;13.40;38.50;;;;;;5033936;28;20387;-73
2023/11/07 10:38:30;;;;;;;3.00;1.60;;;13.70;37.60;;;;;;5033297;28;20474;-73
2023/11/07 10:40:57;;;;;;;8.65;1.95;;;13.90;36.80;;;;;;5033775;28;20383;-73
2023/11/07 10:43:35;;;;;;;5.22;1.85;;;14.00;35.80;;;;;;5032885;28;20383;-72
2023/11/07 10:46:06;;;;;;;2.58;1.60;;;13.80;36.20;;;;;;5032649;28;20889;-73
2023/11/07 10:48:37;;;;;;;6.03;1.60;;;13.70;36.90;;;;;;5032674;28;20940;-74
2023/11/07 10:51:05;;;;;;;4.50;1.90;;;13.40;37.20;;;;;;5038317;28;20411;-74
2023/11/07 10:53:34;;;;;;;6.22;1.90;;;13.20;38.40;;;;;;5039892;28;20869;-72
2023/11/07 10:56:03;;;;;;;4.70;1.70;;;13.10;39.20;;;;;;5034373;28;20682;-74
2023/11/07 10:58:33;;;;;;;7.95;2.38;;;13.10;40.10;;;;;;5032277;28;20378;-73
2023/11/07 11:01:05;;;;;;;9.23;2.35;;;13.20;39.30;;;;;;5032332;28;20456;-72
2023/11/07 11:03:36;;;;;;;3.88;1.67;;;13.40;38.80;;;;;;5032193;28;20873;-72
2023/11/07 11:06:03;;;;;;;4.40;2.20;;;13.40;38.70;;;;;;5031720;28;20801;-73
2023/11/07 11:08:30;;;;;;;5.90;2.10;;;13.50;38.50;;;;;;5031568;28;20398;-72
2023/11/07 11:10:57;;;;;;;9.20;2.80;;;13.70;38.40;;;;;;5032038;28;20410;-73
2023/11/07 11:13:26;;;;;;;6.93;2.00;;;13.90;37.70;;;;;;5032525;28;20897;-72
2023/11/07 11:15:57;;;;;;;6.17;1.90;;;14.00;36.50;;;;;;5032341;28;20395;-74
2023/11/07 11:18:36;;;;;;;3.80;2.00;;;14.00;36.10;;;;;;5031450;28;20927;-73
2023/11/07 11:21:16;;;;;;;8.30;2.47;;;14.00;35.60;;;;;;5032378;28;20482;-73
2023/11/07 11:23:56;;;;;;;5.50;2.10;;;14.00;35.00;;;;;;5031597;28;20804;-72
2023/11/07 11:27:03;;;;;;;4.75;2.00;;;14.00;35.20;;;;;;5029994;28;20418;-73
2023/11/07 11:29:29;;;;;;;10.17;2.87;;;13.90;35.50;;;;;;5036997;28;20438;-72
2023/11/07 11:31:56;;;;;;;5.80;1.80;;;14.00;35.80;;;;;;5033287;28;20452;-72
2023/11/07 11:34:29;;;;;;;6.40;1.90;;;13.90;34.80;;;;;;5031975;28;20389;-75
2023/11/07 11:36:59;;;;;;;5.00;2.05;;;13.90;35.00;;;;;;5031654;28;20741;-73
2023/11/07 11:39:36;;;;;;;7.15;1.80;;;13.70;34.90;;;;;;5031636;28;20382;-74
2023/11/07 11:42:03;;;;;;;4.67;1.87;;;13.50;34.80;;;;;;5031407;28;20402;-73
2023/11/07 11:44:29;;;;;;;7.18;2.10;;;13.30;35.90;;;;;;5031238;28;20383;-73
2023/11/07 11:46:55;;;;;;;8.90;1.90;;;13.30;36.40;;;;;;5030705;28;20493;-72
2023/11/07 11:49:23;;;;;;;7.75;2.00;;;13.30;36.00;;;;;;5031015;28;20423;-74
2023/11/07 11:51:51;;;;;;;11.43;3.85;;;13.40;36.00;;;;;;5031425;28;20470;-72
2023/11/07 11:54:38;;;;;;;6.35;1.90;;;13.40;35.20;;;;;;5031063;28;20383;-74
2023/11/07 11:57:06;;;;;;;4.72;2.08;;;13.30;35.30;;;;;;5031161;28;20406;-71
2023/11/07 11:59:52;;;;;;;4.88;1.50;;;13.30;35.30;;;;;;5031034;28;20382;-73
2023/11/07 12:02:41;;;;;;;5.10;2.10;;;13.20;35.50;;;;;;5030935;28;20414;-71
2023/11/07 12:05:17;;;;;;;5.30;2.08;;;13.20;35.70;;;;;;5031205;28;20429;-74
2023/11/07 12:07:46;;;;;;;7.60;2.00;;;13.40;35.40;;;;;;5031037;28;20379;-74
2023/11/07 12:10:17;;;;;;;6.68;1.60;;;13.70;35.40;;;;;;5031719;28;20862;-73
2023/11/07 12:12:43;;;;;;;5.20;1.73;;;13.90;34.20;;;;;;5031079;28;20407;-72
2023/11/07 12:15:12;;;;;;;4.80;1.80;;;13.90;33.00;;;;;;5033350;28;20395;-74
2023/11/07 12:17:48;;;;;;;4.50;1.45;;;13.80;33.10;;;;;;5031184;28;20383;-73
2023/11/07 12:20:16;;;;;;;5.63;1.40;;;13.60;32.80;;;;;;5031806;28;20424;-72
2023/11/07 12:22:44;;;;;;;4.05;1.40;;;13.50;32.80;;;;;;5031547;28;20414;-73
2023/11/07 12:25:13;;;;;;;2.92;1.50;;;13.50;33.30;;;;;;5031562;28;20739;-74
2023/11/07 12:27:41;;;;;;;5.10;1.40;;;13.70;33.60;;;;;;5031824;28;20401;-73
2023/11/07 12:30:24;;;;;;;6.80;1.50;;;13.70;32.90;;;;;;5047648;28;20738;-74
2023/11/07 12:32:59;;;;;;;4.07;1.52;;;13.50;35.70;;;;;;5031657;28;20387;-72
2023/11/07 12:35:25;;;;;;;3.03;1.40;;;13.20;36.70;;;;;;5032451;28;20497;-73
2023/11/07 12:37:51;;;;;;;4.22;1.30;;;13.10;37.50;;;;;;5032486;28;20414;-73
2023/11/07 12:40:18;;;;;;;2.90;1.33;;;13.10;39.20;;;;;;5031912;28;20382;-73
2023/11/07 12:42:54;;;;;;;7.88;1.50;;;13.00;38.70;;;;;;5031172;28;20865;-73
2023/11/07 12:45:28;;;;;;;7.10;1.73;;;12.90;40.00;;;;;;5032208;28;20391;-73
2023/11/07 12:48:05;;;;;;;5.40;2.00;;;13.00;39.70;;;;;;5034899;28;20472;-74
2023/11/07 12:50:43;;;;;;;7.97;2.05;;;13.10;39.10;;;;;;5035369;28;20429;-73
2023/11/07 12:53:09;;;;;;;5.30;1.30;;;13.20;38.80;;;;;;5035616;28;20394;-72
2023/11/07 12:55:37;;;;;;;6.33;1.73;;;13.30;39.20;;;;;;5034036;28;20428;-73
2023/11/07 12:58:06;;;;;;;3.30;1.50;;;13.40;38.50;;;;;;5035416;28;20379;-73